createdAt,value
2022-11-23T00:00:47.883Z,9.91
2022-11-23T00:01:47.952Z,9.94
2022-11-23T00:02:47.837Z,9.93
2022-11-23T00:03:47.813Z,9.96
2022-11-23T00:04:47.795Z,9.96
2022-11-23T00:05:47.768Z,9.96
2022-11-23T00:06:47.751Z,9.94
2022-11-23T00:07:47.899Z,9.94
2022-11-23T00:08:47.707Z,9.94
2022-11-23T00:09:47.679Z,9.91
2022-11-23T00:10:47.659Z,9.98
2022-11-23T00:11:47.634Z,10.03
2022-11-23T00:12:47.615Z,9.96
2022-11-23T00:13:47.592Z,9.96
2022-11-23T00:14:47.572Z,9.91
2022-11-23T00:15:47.545Z,10.01
2022-11-23T00:16:47.525Z,9.93
2022-11-23T00:17:47.502Z,9.87
2022-11-23T00:18:47.476Z,9.90
2022-11-23T00:19:47.464Z,9.94
2022-11-23T00:20:47.438Z,9.94
2022-11-23T00:21:47.421Z,9.88
2022-11-23T00:22:47.403Z,9.91
2022-11-23T00:23:47.392Z,9.87
2022-11-23T00:24:47.404Z,9.85
2022-11-23T00:25:47.328Z,9.81
2022-11-23T00:26:47.304Z,9.91
2022-11-23T00:27:47.280Z,9.85
2022-11-23T00:28:47.257Z,9.91
2022-11-23T00:29:47.234Z,9.90
2022-11-23T00:30:47.213Z,9.88
2022-11-23T00:31:47.198Z,9.88
2022-11-23T00:32:47.178Z,9.93
2022-11-23T00:33:47.152Z,9.90
2022-11-23T00:34:47.132Z,9.90
2022-11-23T00:35:47.106Z,9.85
2022-11-23T00:36:47.085Z,9.85
2022-11-23T00:37:47.059Z,9.88
2022-11-23T00:38:47.041Z,9.83
2022-11-23T00:39:47.035Z,9.84
2022-11-23T00:40:47.000Z,9.81
2022-11-23T00:41:46.974Z,9.84
2022-11-23T00:42:46.954Z,9.88
2022-11-23T00:43:46.922Z,9.93
2022-11-23T00:44:46.907Z,9.91
2022-11-23T00:45:46.879Z,9.87
2022-11-23T00:46:46.862Z,9.88
2022-11-23T00:47:46.837Z,9.93
2022-11-23T00:48:46.823Z,10.02
2022-11-23T00:49:46.792Z,9.90
2022-11-23T00:50:46.783Z,9.91
2022-11-23T00:51:46.748Z,9.90
2022-11-23T00:52:46.732Z,9.93
2022-11-23T00:53:46.707Z,9.99
2022-11-23T00:54:46.692Z,9.99
2022-11-23T00:55:46.681Z,10.02
2022-11-23T00:56:46.640Z,9.93
2022-11-23T00:57:46.619Z,9.91
2022-11-23T00:58:46.593Z,9.90
2022-11-23T00:59:46.576Z,9.99
2022-11-23T01:00:46.549Z,9.93
2022-11-23T01:01:46.611Z,9.96
2022-11-23T01:02:46.505Z,10.03
2022-11-23T01:03:46.483Z,10.05
2022-11-23T01:04:46.461Z,10.08
2022-11-23T01:05:46.441Z,9.99
2022-11-23T01:06:46.421Z,10.05
2022-11-23T01:07:46.451Z,10.03
2022-11-23T01:08:46.372Z,10.05
2022-11-23T01:09:46.355Z,10.06
2022-11-23T01:10:46.331Z,10.08
2022-11-23T01:11:46.330Z,10.10
2022-11-23T01:12:46.284Z,10.12
2022-11-23T01:13:46.263Z,10.23
2022-11-23T01:14:46.239Z,10.24
2022-11-23T01:15:46.215Z,10.21
2022-11-23T01:16:46.199Z,10.23
2022-11-23T01:17:46.171Z,10.23
2022-11-23T01:18:46.154Z,10.23
2022-11-23T01:19:46.128Z,10.27
2022-11-23T01:20:46.109Z,10.24
2022-11-23T01:21:46.085Z,10.24
2022-11-23T01:22:46.069Z,10.27
2022-11-23T01:23:46.042Z,10.21
2022-11-23T01:24:46.022Z,10.21
2022-11-23T01:25:45.993Z,10.24
2022-11-23T01:26:45.981Z,10.24
2022-11-23T01:27:45.990Z,10.24
2022-11-23T01:28:45.937Z,10.27
2022-11-23T01:29:45.906Z,10.31
2022-11-23T01:30:45.890Z,10.21
2022-11-23T01:31:46.957Z,10.21
2022-11-23T01:32:45.844Z,10.20
2022-11-23T01:33:45.823Z,10.24
2022-11-23T01:34:45.805Z,10.24
2022-11-23T01:35:45.775Z,10.23
2022-11-23T01:36:45.765Z,10.35
2022-11-23T01:37:45.731Z,10.26
2022-11-23T01:38:45.717Z,10.27
2022-11-23T01:39:45.692Z,10.23
2022-11-23T01:40:45.665Z,10.23
2022-11-23T01:41:45.650Z,10.28
2022-11-23T01:42:45.623Z,10.23
2022-11-23T01:43:45.633Z,10.23
2022-11-23T01:44:45.580Z,10.34
2022-11-23T01:45:45.557Z,10.38
2022-11-23T01:46:45.539Z,10.26
2022-11-23T01:47:45.515Z,10.27
2022-11-23T01:48:45.493Z,10.28
2022-11-23T01:49:45.469Z,10.34
2022-11-23T01:50:45.450Z,10.27
2022-11-23T01:51:45.425Z,10.23
2022-11-23T01:52:45.406Z,10.28
2022-11-23T01:53:45.383Z,10.30
2022-11-23T01:54:45.360Z,10.35
2022-11-23T01:55:45.338Z,10.30
2022-11-23T01:56:45.319Z,10.39
2022-11-23T01:57:45.293Z,10.30
2022-11-23T01:58:45.278Z,10.31
2022-11-23T01:59:45.272Z,10.30
2022-11-23T02:00:45.266Z,10.28
2022-11-23T02:01:45.206Z,10.23
2022-11-23T02:02:45.187Z,10.48
2022-11-23T02:03:45.162Z,10.61
2022-11-23T02:04:45.148Z,10.76
2022-11-23T02:05:45.115Z,10.54
2022-11-23T02:06:45.104Z,10.48
2022-11-23T02:07:45.137Z,10.45
2022-11-23T02:08:45.054Z,10.41
2022-11-23T02:09:45.029Z,10.36
2022-11-23T02:10:45.017Z,10.28
2022-11-23T02:11:44.987Z,10.35
2022-11-23T02:12:44.965Z,10.21
2022-11-23T02:13:44.943Z,10.23
2022-11-23T02:14:44.928Z,10.21
2022-11-23T02:15:44.923Z,10.18
2022-11-23T02:16:44.878Z,10.16
2022-11-23T02:17:44.852Z,10.23
2022-11-23T02:18:44.837Z,10.12
2022-11-23T02:19:44.812Z,10.10
2022-11-23T02:20:44.791Z,10.12
2022-11-23T02:21:44.770Z,10.16
2022-11-23T02:22:44.752Z,10.17
2022-11-23T02:23:44.723Z,10.12
2022-11-23T02:24:44.707Z,10.10
2022-11-23T02:25:44.679Z,10.12
2022-11-23T02:26:44.661Z,10.16
2022-11-23T02:27:47.091Z,10.10
2022-11-23T02:28:44.615Z,10.12
2022-11-23T02:29:44.588Z,10.12
2022-11-23T02:30:44.575Z,10.16
2022-11-23T02:31:44.661Z,10.12
2022-11-23T02:32:44.529Z,10.20
2022-11-23T02:33:44.505Z,10.23
2022-11-23T02:34:44.483Z,10.17
2022-11-23T02:35:44.463Z,10.14
2022-11-23T02:36:44.443Z,10.21
2022-11-23T02:37:44.413Z,10.20
2022-11-23T02:38:44.398Z,10.21
2022-11-23T02:39:44.375Z,10.26
2022-11-23T02:40:44.359Z,10.24
2022-11-23T02:41:44.327Z,10.23
2022-11-23T02:42:44.313Z,10.23
2022-11-23T02:43:44.283Z,10.18
2022-11-23T02:44:44.264Z,10.27
2022-11-23T02:45:44.237Z,10.23
2022-11-23T02:46:44.303Z,10.23
2022-11-23T02:47:44.224Z,10.23
2022-11-23T02:48:44.175Z,10.26
2022-11-23T02:49:44.155Z,10.26
2022-11-23T02:50:44.138Z,10.21
2022-11-23T02:51:44.112Z,10.23
2022-11-23T02:52:44.096Z,10.12
2022-11-23T02:53:44.066Z,10.12
2022-11-23T02:54:44.049Z,10.10
2022-11-23T02:55:44.021Z,10.21
2022-11-23T02:56:44.007Z,10.14
2022-11-23T02:57:43.982Z,10.09
2022-11-23T02:58:43.960Z,10.23
2022-11-23T02:59:43.931Z,10.24
2022-11-23T03:00:44.015Z,10.14
2022-11-23T03:01:43.889Z,10.20
2022-11-23T03:02:43.872Z,10.16
2022-11-23T03:03:43.874Z,10.10
2022-11-23T03:04:43.821Z,10.08
2022-11-23T03:05:43.800Z,10.14
2022-11-23T03:06:43.777Z,10.09
2022-11-23T03:07:43.832Z,10.09
2022-11-23T03:08:43.730Z,10.14
2022-11-23T03:09:43.719Z,10.10
2022-11-23T03:10:43.693Z,10.06
2022-11-23T03:11:43.673Z,10.17
2022-11-23T03:12:43.646Z,10.09
2022-11-23T03:13:43.625Z,10.10
2022-11-23T03:14:43.607Z,10.10
2022-11-23T03:15:43.588Z,10.06
2022-11-23T03:16:43.564Z,10.08
2022-11-23T03:17:43.539Z,10.12
2022-11-23T03:18:43.512Z,10.12
2022-11-23T03:19:43.520Z,10.12
2022-11-23T03:20:43.472Z,10.10
2022-11-23T03:21:43.454Z,10.08
2022-11-23T03:22:43.425Z,10.09
2022-11-23T03:23:43.415Z,10.14
2022-11-23T03:24:43.383Z,10.06
2022-11-23T03:25:43.367Z,10.08
2022-11-23T03:26:43.335Z,10.09
2022-11-23T03:27:43.322Z,10.10
2022-11-23T03:28:43.299Z,10.10
2022-11-23T03:29:43.282Z,10.02
2022-11-23T03:30:43.255Z,10.16
2022-11-23T03:31:43.235Z,10.12
2022-11-23T03:32:43.207Z,10.08
2022-11-23T03:33:43.188Z,10.05
2022-11-23T03:34:43.211Z,10.02
2022-11-23T03:35:43.167Z,10.14
2022-11-23T03:36:43.123Z,10.08
2022-11-23T03:37:43.099Z,10.03
2022-11-23T03:38:43.078Z,10.14
2022-11-23T03:39:47.295Z,10.14
2022-11-23T03:40:43.033Z,10.06
2022-11-23T03:41:43.017Z,10.08
2022-11-23T03:42:42.987Z,10.06
2022-11-23T03:43:42.973Z,10.06
2022-11-23T03:44:42.945Z,10.12
2022-11-23T03:45:42.922Z,10.10
2022-11-23T03:46:42.897Z,10.09
2022-11-23T03:47:42.881Z,10.09
2022-11-23T03:48:42.854Z,10.09
2022-11-23T03:49:42.839Z,10.09
2022-11-23T03:50:42.811Z,10.06
2022-11-23T03:51:42.813Z,10.08
2022-11-23T03:52:42.767Z,10.20
2022-11-23T03:53:42.746Z,10.21
2022-11-23T03:54:42.730Z,10.16
2022-11-23T03:55:42.711Z,10.08
2022-11-23T03:56:42.679Z,10.14
2022-11-23T03:57:42.665Z,10.06
2022-11-23T03:58:42.634Z,10.14
2022-11-23T03:59:42.622Z,10.09
2022-11-23T04:00:42.653Z,10.12
2022-11-23T04:01:42.575Z,10.21
2022-11-23T04:02:42.549Z,10.12
2022-11-23T04:03:42.532Z,10.08
2022-11-23T04:04:42.506Z,10.09
2022-11-23T04:05:42.485Z,10.12
2022-11-23T04:06:42.466Z,10.09
2022-11-23T04:07:42.487Z,10.12
2022-11-23T04:08:42.420Z,10.23
2022-11-23T04:09:42.398Z,10.21
2022-11-23T04:10:42.375Z,10.10
2022-11-23T04:11:42.358Z,10.10
2022-11-23T04:12:42.331Z,10.14
2022-11-23T04:13:42.311Z,10.10
2022-11-23T04:14:42.291Z,10.06
2022-11-23T04:15:42.270Z,10.05
2022-11-23T04:16:42.241Z,10.05
2022-11-23T04:17:42.228Z,10.08
2022-11-23T04:18:42.199Z,10.12
2022-11-23T04:19:42.179Z,10.09
2022-11-23T04:20:42.158Z,10.12
2022-11-23T04:21:42.136Z,10.16
2022-11-23T04:22:42.117Z,10.18
2022-11-23T04:23:42.119Z,10.21
2022-11-23T04:24:42.065Z,10.18
2022-11-23T04:25:42.046Z,10.14
2022-11-23T04:26:42.020Z,10.16
2022-11-23T04:27:42.008Z,10.10
2022-11-23T04:28:41.976Z,10.10
2022-11-23T04:29:41.960Z,10.09
2022-11-23T04:30:41.936Z,10.14
2022-11-23T04:31:41.921Z,10.12
2022-11-23T04:32:41.893Z,10.09
2022-11-23T04:33:41.871Z,10.14
2022-11-23T04:34:41.848Z,10.08
2022-11-23T04:35:41.831Z,10.14
2022-11-23T04:36:41.805Z,10.10
2022-11-23T04:37:41.784Z,10.10
2022-11-23T04:38:41.760Z,10.12
2022-11-23T04:39:41.762Z,10.08
2022-11-23T04:40:41.720Z,10.09
2022-11-23T04:41:41.698Z,10.08
2022-11-23T04:42:41.672Z,10.06
2022-11-23T04:43:41.653Z,10.06
2022-11-23T04:44:41.638Z,10.02
2022-11-23T04:45:41.615Z,10.01
2022-11-23T04:46:41.587Z,10.08
2022-11-23T04:47:41.567Z,10.01
2022-11-23T04:48:41.546Z,9.98
2022-11-23T04:49:41.520Z,10.01
2022-11-23T04:50:41.499Z,9.94
2022-11-23T04:51:41.479Z,9.94
2022-11-23T04:52:41.453Z,9.93
2022-11-23T04:53:41.453Z,9.96
2022-11-23T04:54:41.412Z,9.96
2022-11-23T04:55:41.475Z,9.91
2022-11-23T04:56:41.365Z,9.98
2022-11-23T04:57:41.351Z,9.93
2022-11-23T04:58:41.334Z,9.94
2022-11-23T04:59:41.304Z,9.99
2022-11-23T05:00:41.353Z,9.88
2022-11-23T05:01:41.340Z,9.96
2022-11-23T05:02:41.231Z,9.91
2022-11-23T05:03:41.233Z,9.94
2022-11-23T05:04:41.190Z,9.90
2022-11-23T05:05:41.170Z,9.96
2022-11-23T05:06:41.146Z,9.88
2022-11-23T05:07:41.194Z,9.96
2022-11-23T05:08:41.099Z,9.96
2022-11-23T05:09:41.079Z,9.98
2022-11-23T05:10:41.057Z,9.96
2022-11-23T05:11:41.059Z,9.98
2022-11-23T05:12:41.010Z,9.96
2022-11-23T05:13:40.991Z,9.94
2022-11-23T05:14:40.968Z,9.94
2022-11-23T05:15:40.952Z,9.96
2022-11-23T05:16:40.920Z,9.91
2022-11-23T05:17:40.906Z,9.93
2022-11-23T05:18:40.882Z,9.98
2022-11-23T05:19:40.864Z,9.93
2022-11-23T05:20:40.834Z,9.98
2022-11-23T05:21:40.817Z,9.98
2022-11-23T05:22:40.791Z,10.01
2022-11-23T05:23:40.776Z,9.96
2022-11-23T05:24:40.746Z,10.08
2022-11-23T05:25:40.728Z,10.03
2022-11-23T05:26:40.699Z,9.98
2022-11-23T05:27:40.704Z,10.02
2022-11-23T05:28:41.648Z,9.96
2022-11-23T05:29:40.641Z,10.01
2022-11-23T05:30:40.614Z,10.02
2022-11-23T05:31:40.599Z,10.06
2022-11-23T05:32:40.567Z,10.01
2022-11-23T05:33:40.576Z,9.96
2022-11-23T05:34:40.527Z,9.99
2022-11-23T05:35:40.511Z,9.94
2022-11-23T05:36:42.429Z,9.98
2022-11-23T05:37:40.463Z,9.93
2022-11-23T05:38:40.438Z,9.96
2022-11-23T05:39:40.424Z,9.94
2022-11-23T05:40:40.399Z,9.98
2022-11-23T05:41:40.378Z,9.96
2022-11-23T05:42:40.351Z,9.93
2022-11-23T05:43:40.356Z,9.98
2022-11-23T05:44:40.311Z,9.93
2022-11-23T05:45:40.288Z,9.96
2022-11-23T05:46:40.263Z,9.96
2022-11-23T05:47:40.245Z,9.87
2022-11-23T05:48:40.218Z,9.90
2022-11-23T05:49:40.199Z,9.93
2022-11-23T05:50:40.170Z,9.88
2022-11-23T05:51:40.155Z,9.93
2022-11-23T05:52:40.128Z,9.90
2022-11-23T05:53:40.115Z,9.94
2022-11-23T05:54:40.087Z,9.88
2022-11-23T05:55:40.065Z,9.90
2022-11-23T05:56:40.589Z,9.98
2022-11-23T05:57:40.023Z,9.94
2022-11-23T05:58:40.000Z,9.85
2022-11-23T05:59:40.000Z,9.88
2022-11-23T06:00:39.955Z,9.88
2022-11-23T06:01:39.941Z,9.88
2022-11-23T06:02:41.412Z,9.81
2022-11-23T06:03:39.940Z,9.90
2022-11-23T06:04:39.863Z,9.84
2022-11-23T06:05:39.844Z,9.80
2022-11-23T06:06:39.819Z,9.77
2022-11-23T06:07:39.864Z,9.81
2022-11-23T06:08:39.774Z,9.88
2022-11-23T06:09:39.756Z,9.87
2022-11-23T06:10:39.729Z,9.88
2022-11-23T06:11:39.713Z,9.84
2022-11-23T06:12:39.685Z,9.84
2022-11-23T06:13:39.667Z,9.91
2022-11-23T06:14:39.640Z,9.85
2022-11-23T06:15:39.648Z,9.90
2022-11-23T06:16:39.597Z,9.91
2022-11-23T06:17:39.579Z,9.87
2022-11-23T06:18:39.561Z,9.88
2022-11-23T06:19:39.546Z,9.88
2022-11-23T06:20:39.512Z,9.81
2022-11-23T06:21:39.490Z,9.83
2022-11-23T06:22:39.470Z,9.77
2022-11-23T06:23:39.455Z,9.72
2022-11-23T06:24:39.427Z,9.85
2022-11-23T06:25:39.403Z,9.84
2022-11-23T06:26:39.378Z,9.83
2022-11-23T06:27:39.370Z,9.91
2022-11-23T06:28:39.334Z,9.85
2022-11-23T06:29:39.319Z,9.87
2022-11-23T06:30:39.293Z,9.96
2022-11-23T06:31:39.293Z,9.90
2022-11-23T06:32:39.254Z,9.93
2022-11-23T06:33:39.229Z,9.84
2022-11-23T06:34:39.204Z,9.83
2022-11-23T06:35:39.184Z,9.88
2022-11-23T06:36:39.157Z,9.88
2022-11-23T06:37:39.143Z,9.90
2022-11-23T06:38:39.116Z,9.98
2022-11-23T06:39:39.098Z,9.96
2022-11-23T06:40:39.069Z,9.94
2022-11-23T06:41:39.051Z,9.90
2022-11-23T06:42:40.156Z,9.88
2022-11-23T06:43:39.008Z,9.94
2022-11-23T06:44:38.979Z,9.96
2022-11-23T06:45:38.970Z,9.96
2022-11-23T06:46:38.940Z,9.96
2022-11-23T06:47:38.941Z,9.96
2022-11-23T06:48:38.902Z,10.01
2022-11-23T06:49:38.875Z,10.01
2022-11-23T06:50:38.854Z,9.99
2022-11-23T06:51:38.834Z,10.02
2022-11-23T06:52:38.810Z,9.99
2022-11-23T06:53:38.787Z,9.94
2022-11-23T06:54:38.764Z,9.99
2022-11-23T06:55:38.746Z,9.99
2022-11-23T06:56:38.719Z,10.01
2022-11-23T06:57:38.708Z,9.99
2022-11-23T06:58:38.677Z,9.96
2022-11-23T06:59:43.319Z,9.96
2022-11-23T07:00:38.626Z,9.96
2022-11-23T07:01:38.654Z,9.94
2022-11-23T07:02:38.585Z,9.91
2022-11-23T07:03:38.628Z,9.96
2022-11-23T07:04:38.543Z,10.01
2022-11-23T07:05:38.523Z,10.02
2022-11-23T07:06:38.498Z,10.02
2022-11-23T07:07:38.774Z,9.96
2022-11-23T07:08:38.456Z,9.98
2022-11-23T07:09:38.436Z,9.96
2022-11-23T07:10:38.416Z,10.02
2022-11-23T07:11:38.393Z,10.03
2022-11-23T07:12:38.363Z,9.96
2022-11-23T07:13:38.349Z,10.05
2022-11-23T07:14:38.323Z,10.05
2022-11-23T07:15:38.305Z,9.98
2022-11-23T07:16:38.279Z,9.96
2022-11-23T07:17:38.259Z,9.94
2022-11-23T07:18:38.235Z,9.94
2022-11-23T07:19:38.237Z,9.91
2022-11-23T07:20:38.190Z,9.91
2022-11-23T07:21:38.175Z,9.96
2022-11-23T07:22:38.153Z,9.99
2022-11-23T07:23:38.130Z,9.96
2022-11-23T07:24:42.614Z,9.98
2022-11-23T07:25:38.085Z,9.98
2022-11-23T07:26:38.062Z,9.99
2022-11-23T07:27:38.044Z,9.94
2022-11-23T07:28:38.018Z,9.90
2022-11-23T07:29:37.994Z,10.02
2022-11-23T07:30:37.968Z,10.03
2022-11-23T07:31:37.952Z,10.03
2022-11-23T07:32:37.935Z,9.94
2022-11-23T07:33:37.914Z,9.94
2022-11-23T07:34:37.880Z,10.06
2022-11-23T07:35:37.889Z,9.94
2022-11-23T07:36:37.840Z,10.03
2022-11-23T07:37:37.824Z,10.01
2022-11-23T07:38:37.792Z,9.99
2022-11-23T07:39:56.283Z,9.98
2022-11-23T07:40:37.760Z,10.05
2022-11-23T07:41:37.734Z,9.99
2022-11-23T07:42:44.422Z,10.01
2022-11-23T07:43:37.687Z,9.98
2022-11-23T07:44:37.731Z,10.08
2022-11-23T07:45:37.662Z,10.06
2022-11-23T07:46:37.618Z,10.08
2022-11-23T07:47:37.603Z,10.09
2022-11-23T07:48:37.574Z,10.06
2022-11-23T07:49:37.566Z,10.12
2022-11-23T07:50:37.533Z,10.09
2022-11-23T07:51:37.535Z,10.06
2022-11-23T07:52:37.483Z,10.10
2022-11-23T07:53:37.472Z,10.03
2022-11-23T07:54:37.445Z,10.17
2022-11-23T07:55:37.427Z,10.10
2022-11-23T07:56:37.399Z,10.20
2022-11-23T07:57:37.380Z,10.05
2022-11-23T07:58:37.356Z,10.12
2022-11-23T07:59:37.339Z,10.10
2022-11-23T08:00:37.315Z,10.08
2022-11-23T08:01:37.293Z,10.12
2022-11-23T08:02:37.314Z,10.10
2022-11-23T08:03:37.285Z,10.09
2022-11-23T08:04:37.223Z,10.14
2022-11-23T08:05:37.207Z,10.21
2022-11-23T08:06:37.184Z,10.18
2022-11-23T08:07:37.218Z,10.26
2022-11-23T08:08:37.134Z,10.27
2022-11-23T08:09:37.115Z,10.26
2022-11-23T08:10:43.475Z,10.24
2022-11-23T08:11:37.070Z,10.31
2022-11-23T08:12:37.052Z,10.24
2022-11-23T08:13:37.027Z,10.36
2022-11-23T08:14:36.999Z,10.30
2022-11-23T08:15:36.978Z,10.21
2022-11-23T08:16:36.959Z,10.27
2022-11-23T08:17:36.945Z,10.23
2022-11-23T08:18:36.917Z,10.27
2022-11-23T08:19:36.905Z,10.23
2022-11-23T08:20:36.872Z,10.24
2022-11-23T08:21:36.853Z,10.26
2022-11-23T08:22:36.842Z,10.23
2022-11-23T08:23:36.829Z,10.39
2022-11-23T08:24:36.787Z,10.38
2022-11-23T08:25:36.762Z,10.36
2022-11-23T08:26:36.740Z,10.38
2022-11-23T08:27:36.722Z,10.35
2022-11-23T08:28:36.698Z,10.39
2022-11-23T08:29:36.677Z,10.39
2022-11-23T08:30:36.659Z,10.36
2022-11-23T08:31:36.644Z,10.54
2022-11-23T08:32:36.614Z,10.45
2022-11-23T08:33:36.593Z,10.42
2022-11-23T08:34:36.574Z,10.41
2022-11-23T08:35:36.665Z,10.41
2022-11-23T08:36:36.529Z,10.41
2022-11-23T08:37:36.511Z,10.41
2022-11-23T08:38:36.485Z,10.39
2022-11-23T08:39:36.482Z,10.48
2022-11-23T08:40:36.439Z,10.34
2022-11-23T08:41:36.441Z,10.36
2022-11-23T08:42:36.397Z,10.41
2022-11-23T08:43:36.376Z,10.43
2022-11-23T08:44:36.354Z,10.54
2022-11-23T08:45:36.331Z,10.48
2022-11-23T08:46:36.306Z,10.42
2022-11-23T08:47:36.292Z,10.49
2022-11-23T08:48:36.264Z,10.58
2022-11-23T08:49:36.242Z,10.57
2022-11-23T08:50:36.219Z,10.61
2022-11-23T08:51:36.201Z,10.72
2022-11-23T08:52:36.195Z,10.76
2022-11-23T08:53:36.172Z,10.65
2022-11-23T08:54:36.135Z,10.75
2022-11-23T08:55:36.147Z,10.68
2022-11-23T08:56:36.099Z,10.55
2022-11-23T08:57:36.080Z,10.52
2022-11-23T08:58:36.043Z,10.54
2022-11-23T08:59:36.027Z,10.54
2022-11-23T09:00:36.003Z,10.54
2022-11-23T09:01:36.039Z,10.54
2022-11-23T09:02:35.961Z,10.49
2022-11-23T09:03:35.944Z,10.39
2022-11-23T09:04:36.198Z,10.55
2022-11-23T09:05:35.898Z,10.54
2022-11-23T09:06:35.909Z,10.57
2022-11-23T09:07:35.963Z,10.57
2022-11-23T09:08:35.835Z,10.54
2022-11-23T09:09:35.815Z,10.49
2022-11-23T09:10:35.793Z,10.54
2022-11-23T09:11:35.795Z,10.54
2022-11-23T09:12:35.748Z,10.55
2022-11-23T09:13:35.724Z,10.61
2022-11-23T09:14:35.712Z,10.70
2022-11-23T09:15:35.688Z,10.61
2022-11-23T09:16:35.667Z,10.64
2022-11-23T09:17:35.639Z,10.64
2022-11-23T09:18:35.626Z,10.62
2022-11-23T09:19:35.598Z,10.70
2022-11-23T09:20:35.578Z,10.73
2022-11-23T09:21:35.555Z,10.78
2022-11-23T09:22:35.531Z,10.78
2022-11-23T09:23:35.521Z,10.86
2022-11-23T09:24:35.913Z,10.90
2022-11-23T09:25:35.474Z,10.93
2022-11-23T09:26:35.441Z,10.80
2022-11-23T09:27:35.444Z,10.94
2022-11-23T09:28:38.050Z,10.87
2022-11-23T09:29:35.381Z,10.87
2022-11-23T09:30:35.366Z,10.86
2022-11-23T09:31:35.342Z,10.95
2022-11-23T09:32:35.320Z,11.00
2022-11-23T09:33:35.297Z,10.86
2022-11-23T09:34:35.443Z,11.01
2022-11-23T09:35:39.332Z,11.05
2022-11-23T09:36:35.228Z,10.98
2022-11-23T09:37:35.215Z,10.94
2022-11-23T09:38:57.650Z,10.90
2022-11-23T09:39:35.172Z,11.00
2022-11-23T09:40:35.145Z,11.05
2022-11-23T09:41:35.133Z,11.15
2022-11-23T09:42:35.104Z,11.15
2022-11-23T09:43:35.116Z,11.11
2022-11-23T09:44:35.279Z,11.16
2022-11-23T09:45:35.045Z,11.13
2022-11-23T09:46:37.099Z,11.20
2022-11-23T09:47:34.998Z,11.22
2022-11-23T09:48:34.979Z,11.20
2022-11-23T09:49:34.954Z,11.27
2022-11-23T09:50:34.929Z,11.27
2022-11-23T09:51:34.917Z,11.43
2022-11-23T09:52:34.898Z,11.38
2022-11-23T09:53:34.870Z,11.51
2022-11-23T09:54:35.282Z,11.52
2022-11-23T09:55:34.831Z,11.54
2022-11-23T09:56:34.807Z,11.45
2022-11-23T09:57:34.792Z,11.59
2022-11-23T09:58:34.763Z,11.56
2022-11-23T09:59:34.791Z,11.62
2022-11-23T10:00:34.728Z,11.67
2022-11-23T10:01:34.741Z,11.76
2022-11-23T10:02:34.681Z,11.93
2022-11-23T10:03:34.663Z,12.03
2022-11-23T10:04:34.926Z,11.93
2022-11-23T10:05:34.622Z,11.95
2022-11-23T10:06:34.599Z,12.07
2022-11-23T10:07:34.654Z,12.23
2022-11-23T10:08:34.564Z,12.32
2022-11-23T10:09:34.547Z,12.30
2022-11-23T10:10:34.520Z,12.48
2022-11-23T10:11:34.502Z,12.68
2022-11-23T10:12:38.638Z,12.88
2022-11-23T10:13:34.457Z,13.01
2022-11-23T10:14:34.673Z,13.17
2022-11-23T10:15:34.451Z,12.96
2022-11-23T10:16:34.397Z,13.16
2022-11-23T10:17:34.380Z,13.30
2022-11-23T10:18:34.353Z,13.54
2022-11-23T10:19:34.345Z,13.78
2022-11-23T10:20:34.314Z,13.82
2022-11-23T10:21:34.304Z,13.90
2022-11-23T10:22:34.283Z,13.65
2022-11-23T10:23:34.268Z,13.76
2022-11-23T10:24:34.837Z,14.13
2022-11-23T10:25:38.954Z,13.85
2022-11-23T10:26:34.205Z,13.85
2022-11-23T10:27:34.187Z,13.55
2022-11-23T10:28:34.771Z,13.53
2022-11-23T10:29:34.159Z,13.76
2022-11-23T10:30:34.136Z,13.76
2022-11-23T10:31:34.140Z,13.61
2022-11-23T10:32:34.095Z,13.53
2022-11-23T10:33:34.076Z,13.61
2022-11-23T10:34:34.483Z,13.65
2022-11-23T10:35:34.047Z,13.78
2022-11-23T10:36:34.028Z,13.94
2022-11-23T10:37:34.005Z,13.97
2022-11-23T10:38:33.995Z,13.97
2022-11-23T10:39:33.967Z,14.03
2022-11-23T10:40:33.958Z,14.19
2022-11-23T10:41:33.937Z,14.58
2022-11-23T10:42:33.910Z,15.14
2022-11-23T10:43:33.901Z,15.48
2022-11-23T10:44:34.296Z,15.96
2022-11-23T10:45:33.868Z,15.60
2022-11-23T10:46:33.851Z,14.97
2022-11-23T10:47:33.853Z,14.74
2022-11-23T10:48:33.813Z,14.87
2022-11-23T10:49:33.796Z,14.95
2022-11-23T10:50:33.778Z,14.33
2022-11-23T10:51:33.758Z,14.12
2022-11-23T10:52:33.745Z,13.94
2022-11-23T10:53:33.736Z,14.05
2022-11-23T10:54:34.029Z,13.96
2022-11-23T10:55:33.690Z,14.19
2022-11-23T10:56:33.677Z,14.03
2022-11-23T10:57:33.662Z,13.97
2022-11-23T10:58:33.637Z,13.32
2022-11-23T10:59:33.620Z,13.71
2022-11-23T11:00:33.597Z,14.11
2022-11-23T11:01:33.632Z,13.94
2022-11-23T11:02:33.578Z,13.72
2022-11-23T11:03:33.568Z,13.68
2022-11-23T11:04:33.826Z,13.60
2022-11-23T11:06:07.632Z,13.97
2022-11-23T11:06:33.499Z,14.52
2022-11-23T11:07:33.529Z,14.23
2022-11-23T11:08:33.460Z,14.40
2022-11-23T11:09:33.904Z,14.79
2022-11-23T11:10:33.428Z,14.74
2022-11-23T11:11:33.410Z,14.55
2022-11-23T11:12:33.392Z,14.82
2022-11-23T11:13:33.385Z,15.11
2022-11-23T11:14:42.825Z,15.29
2022-11-23T11:15:36.218Z,14.82
2022-11-23T11:16:33.327Z,14.48
2022-11-23T11:17:33.304Z,14.12
2022-11-23T11:18:33.293Z,13.97
2022-11-23T11:19:33.302Z,14.28
2022-11-23T11:20:33.259Z,14.70
2022-11-23T11:21:33.245Z,14.78
2022-11-23T11:22:33.222Z,14.19
2022-11-23T11:23:33.210Z,14.46
2022-11-23T11:24:33.597Z,14.67
2022-11-23T11:25:33.174Z,14.86
2022-11-23T11:26:33.160Z,14.92
2022-11-23T11:27:33.140Z,15.11
2022-11-23T11:28:33.121Z,15.19
2022-11-23T11:29:38.637Z,15.26
2022-11-23T11:30:33.089Z,15.12
2022-11-23T11:31:33.084Z,15.23
2022-11-23T11:32:33.059Z,15.52
2022-11-23T11:33:36.342Z,15.85
2022-11-23T11:34:33.367Z,15.68
2022-11-23T11:35:33.032Z,15.19
2022-11-23T11:36:32.993Z,14.69
2022-11-23T11:37:32.977Z,14.90
2022-11-23T11:38:32.961Z,14.79
2022-11-23T11:39:32.948Z,14.79
2022-11-23T11:40:32.926Z,14.92
2022-11-23T11:41:32.912Z,15.19
2022-11-23T11:42:32.900Z,15.23
2022-11-23T11:43:39.435Z,15.22
2022-11-23T11:44:33.143Z,15.38
2022-11-23T11:45:32.849Z,15.65
2022-11-23T11:46:32.857Z,15.72
2022-11-23T11:47:32.818Z,15.91
2022-11-23T11:48:32.801Z,16.16
2022-11-23T11:49:32.789Z,16.29
2022-11-23T11:50:32.778Z,15.85
2022-11-23T11:51:32.776Z,15.68
2022-11-23T11:52:32.737Z,15.43
2022-11-23T11:53:32.728Z,15.15
2022-11-23T11:54:33.219Z,14.90
2022-11-23T11:55:32.745Z,15.11
2022-11-23T11:56:32.679Z,15.41
2022-11-23T11:57:32.667Z,15.35
2022-11-23T11:58:32.684Z,15.45
2022-11-23T11:59:33.096Z,15.45
2022-11-23T12:00:32.613Z,15.80
2022-11-23T12:01:32.602Z,15.91
2022-11-23T12:02:32.633Z,15.98
2022-11-23T12:03:32.576Z,16.26
2022-11-23T12:04:32.971Z,16.17
2022-11-23T12:05:32.543Z,16.46
2022-11-23T12:06:32.525Z,16.09
2022-11-23T12:07:32.739Z,15.88
2022-11-23T12:08:32.496Z,14.85
2022-11-23T12:09:32.859Z,14.77
2022-11-23T12:10:32.466Z,14.78
2022-11-23T12:11:32.459Z,14.45
2022-11-23T12:12:32.433Z,14.71
2022-11-23T12:13:32.424Z,14.82
2022-11-23T12:14:32.760Z,14.87
2022-11-23T12:15:49.821Z,15.12
2022-11-23T12:16:32.368Z,15.20
2022-11-23T12:17:33.544Z,14.99
2022-11-23T12:18:32.340Z,14.82
2022-11-23T12:19:32.674Z,14.83
2022-11-23T12:20:32.308Z,14.70
2022-11-23T12:21:32.329Z,14.96
2022-11-23T12:22:32.280Z,15.14
2022-11-23T12:23:32.289Z,14.82
2022-11-23T12:24:32.254Z,14.86
2022-11-23T12:25:32.232Z,14.77
2022-11-23T12:26:32.207Z,14.59
2022-11-23T12:27:32.200Z,14.45
2022-11-23T12:28:32.177Z,14.38
2022-11-23T12:29:32.523Z,14.55
2022-11-23T12:30:32.147Z,14.78
2022-11-23T12:31:32.132Z,15.03
2022-11-23T12:32:32.119Z,15.01
2022-11-23T12:33:32.112Z,14.89
2022-11-23T12:34:32.512Z,14.55
2022-11-23T12:35:32.071Z,14.18
2022-11-23T12:36:32.051Z,14.13
2022-11-23T12:37:32.040Z,14.19
2022-11-23T12:38:32.024Z,14.08
2022-11-23T12:39:32.022Z,13.97
2022-11-23T12:40:31.982Z,13.86
2022-11-23T12:41:31.970Z,13.86
2022-11-23T12:42:31.954Z,13.75
2022-11-23T12:43:36.450Z,13.79
2022-11-23T12:44:32.278Z,13.97
2022-11-23T12:45:31.897Z,14.19
2022-11-23T12:46:31.881Z,14.16
2022-11-23T12:47:31.858Z,14.21
2022-11-23T12:48:31.848Z,14.18
2022-11-23T12:49:34.856Z,14.38
2022-11-23T12:50:31.814Z,14.21
2022-11-23T12:51:31.802Z,14.16
2022-11-23T12:52:31.786Z,14.09
2022-11-23T12:53:31.820Z,14.12
2022-11-23T12:54:32.107Z,13.91
2022-11-23T12:55:31.743Z,13.83
2022-11-23T12:56:31.706Z,13.80
2022-11-23T12:57:31.695Z,13.98
2022-11-23T12:58:31.678Z,14.16
2022-11-23T12:59:31.656Z,14.26